Arlington, Kansas
Current Conditions -  °F | °C
As of 5:05 AM on Friday 24 Oct 2014 (Local Time) from KHUT Reporting Station
Haze Haze  
Wind Chill: 57°   Ceiling: Unl
Heat Index: 57°   Visibility: 2.5mi
Dew Point: 55°   Wind: 6mph
Humidity: 93%   Direction: 170°S
Pressure: 30.04"   Gusts: NA
Location:  37.9°N, 98.18°W
Report Text: KHUT 241005Z AUTO 17005KT 2 1/2SM BR CLR 14/13 A3004 RMK AO2 T01390128
Loading
Personal Weather Stations






























Interactive Weather Map New forecast layout! Learn more

10-Day Weather Forecast

Advertisements
Track Severe Weather on mobile